sensor_id;sensor_type;location;lat;lon;timestamp;pressure;altitude;pressure_sealevel;temperature;humidity
64388;BME280;50709;52.648;4.764;2022-07-09T00:00:53;102935.00;;;21.91;59.54
64388;BME280;50709;52.648;4.764;2022-07-09T00:03:19;102928.66;;;22.01;59.63
64388;BME280;50709;52.648;4.764;2022-07-09T00:05:45;102916.47;;;21.83;59.32
64388;BME280;50709;52.648;4.764;2022-07-09T00:08:10;102898.09;;;21.65;59.39
64388;BME280;50709;52.648;4.764;2022-07-09T00:10:35;102921.75;;;21.85;59.40
64388;BME280;50709;52.648;4.764;2022-07-09T00:13:01;102927.06;;;21.85;60.23
64388;BME280;50709;52.648;4.764;2022-07-09T00:15:26;102914.00;;;21.68;60.66
64388;BME280;50709;52.648;4.764;2022-07-09T00:17:51;102916.56;;;21.76;60.47
64388;BME280;50709;52.648;4.764;2022-07-09T00:20:17;102912.06;;;21.79;60.44
64388;BME280;50709;52.648;4.764;2022-07-09T00:22:42;102911.38;;;21.63;59.99
64388;BME280;50709;52.648;4.764;2022-07-09T00:25:08;102906.19;;;21.49;60.49
64388;BME280;50709;52.648;4.764;2022-07-09T00:27:33;102923.53;;;21.84;60.07
64388;BME280;50709;52.648;4.764;2022-07-09T00:29:59;102902.03;;;22.03;59.26
64388;BME280;50709;52.648;4.764;2022-07-09T00:32:24;102918.03;;;21.98;59.57
64388;BME280;50709;52.648;4.764;2022-07-09T00:34:49;102913.09;;;21.69;59.64
64388;BME280;50709;52.648;4.764;2022-07-09T00:37:27;102907.06;;;21.51;60.86
64388;BME280;50709;52.648;4.764;2022-07-09T00:39:52;102912.06;;;21.79;60.52
64388;BME280;50709;52.648;4.764;2022-07-09T00:42:17;102897.59;;;22.02;59.79
64388;BME280;50709;52.648;4.764;2022-07-09T00:44:43;102886.91;;;22.07;59.08
64388;BME280;50709;52.648;4.764;2022-07-09T00:47:08;102913.22;;;22.27;59.28
64388;BME280;50709;52.648;4.764;2022-07-09T00:49:41;102859.81;;;21.77;59.55
64388;BME280;50709;52.648;4.764;2022-07-09T00:52:06;102903.00;;;21.97;59.78
64388;BME280;50709;52.648;4.764;2022-07-09T00:54:34;102885.28;;;21.96;60.23
64388;BME280;50709;52.648;4.764;2022-07-09T00:56:59;102891.38;;;22.05;60.17
64388;BME280;50709;52.648;4.764;2022-07-09T00:59:24;102906.19;;;22.24;59.75
64388;BME280;50709;52.648;4.764;2022-07-09T01:01:50;102903.53;;;22.24;59.87
64388;BME280;50709;52.648;4.764;2022-07-09T01:04:17;102888.75;;;22.01;60.25
64388;BME280;50709;52.648;4.764;2022-07-09T01:06:42;102890.31;;;22.16;59.59
64388;BME280;50709;52.648;4.764;2022-07-09T01:09:08;102910.47;;;22.36;59.27
64388;BME280;50709;52.648;4.764;2022-07-09T01:11:34;102887.47;;;22.29;59.38
64388;BME280;50709;52.648;4.764;2022-07-09T01:13:59;102910.44;;;22.38;59.69
64388;BME280;50709;52.648;4.764;2022-07-09T01:17:00;102897.34;;;22.22;59.69
64388;BME280;50709;52.648;4.764;2022-07-09T01:19:26;102891.22;;;22.15;60.21
64388;BME280;50709;52.648;4.764;2022-07-09T01:21:52;102873.75;;;21.96;60.46
64388;BME280;50709;52.648;4.764;2022-07-09T01:24:17;102868.16;;;22.14;59.99
64388;BME280;50709;52.648;4.764;2022-07-09T01:26:43;102886.72;;;22.21;60.23
64388;BME280;50709;52.648;4.764;2022-07-09T01:29:08;102890.19;;;22.26;60.01
64388;BME280;50709;52.648;4.764;2022-07-09T01:31:33;102876.88;;;22.26;59.50
64388;BME280;50709;52.648;4.764;2022-07-09T01:33:59;102899.13;;;22.22;60.06
64388;BME280;50709;52.648;4.764;2022-07-09T01:36:24;102900.25;;;22.04;60.95
64388;BME280;50709;52.648;4.764;2022-07-09T01:38:49;102893.94;;;22.12;60.55
64388;BME280;50709;52.648;4.764;2022-07-09T01:41:14;102885.13;;;22.07;60.57
64388;BME280;50709;52.648;4.764;2022-07-09T01:43:40;102878.25;;;21.91;60.74
64388;BME280;50709;52.648;4.764;2022-07-09T01:46:05;102891.25;;;22.14;60.36
64388;BME280;50709;52.648;4.764;2022-07-09T01:48:33;102890.47;;;22.06;60.75
64388;BME280;50709;52.648;4.764;2022-07-09T01:50:59;102885.78;;;22.25;60.17
64388;BME280;50709;52.648;4.764;2022-07-09T01:53:24;102879.56;;;22.23;60.11
64388;BME280;50709;52.648;4.764;2022-07-09T01:55:49;102884.94;;;22.21;60.09
64388;BME280;50709;52.648;4.764;2022-07-09T01:58:15;102879.56;;;22.23;60.20
64388;BME280;50709;52.648;4.764;2022-07-09T02:00:40;102866.22;;;22.27;60.18
64388;BME280;50709;52.648;4.764;2022-07-09T02:03:06;102821.53;;;21.89;59.91
64388;BME280;50709;52.648;4.764;2022-07-09T02:05:31;102846.97;;;22.08;60.18
64388;BME280;50709;52.648;4.764;2022-07-09T02:07:56;102872.50;;;22.23;60.04
64388;BME280;50709;52.648;4.764;2022-07-09T02:10:22;102859.03;;;22.31;59.98
64388;BME280;50709;52.648;4.764;2022-07-09T02:12:47;102852.00;;;22.30;60.08
64388;BME280;50709;52.648;4.764;2022-07-09T02:15:12;102850.00;;;22.44;59.73
64388;BME280;50709;52.648;4.764;2022-07-09T02:17:38;102844.09;;;22.22;59.59
64388;BME280;50709;52.648;4.764;2022-07-09T02:20:04;102839.50;;;22.32;59.64
64388;BME280;50709;52.648;4.764;2022-07-09T02:22:29;102792.19;;;21.95;59.83
64388;BME280;50709;52.648;4.764;2022-07-09T02:24:56;102818.97;;;21.81;60.46
64388;BME280;50709;52.648;4.764;2022-07-09T02:27:21;102810.69;;;22.04;60.09
64388;BME280;50709;52.648;4.764;2022-07-09T02:29:47;102834.09;;;22.41;59.80
64388;BME280;50709;52.648;4.764;2022-07-09T02:32:12;102818.38;;;22.24;60.07
64388;BME280;50709;52.648;4.764;2022-07-09T02:34:38;102809.44;;;22.27;59.55
64388;BME280;50709;52.648;4.764;2022-07-09T02:37:04;102833.59;;;22.13;60.09
64388;BME280;50709;52.648;4.764;2022-07-09T02:39:30;102835.19;;;22.25;60.27
64388;BME280;50709;52.648;4.764;2022-07-09T02:41:55;102834.28;;;22.27;59.82
64388;BME280;50709;52.648;4.764;2022-07-09T02:44:20;102826.03;;;22.44;59.68
64388;BME280;50709;52.648;4.764;2022-07-09T02:46:46;102831.38;;;22.44;59.66
64388;BME280;50709;52.648;4.764;2022-07-09T02:49:11;102834.19;;;22.35;59.52
64388;BME280;50709;52.648;4.764;2022-07-09T02:51:36;102835.28;;;22.18;59.89
64388;BME280;50709;52.648;4.764;2022-07-09T02:54:02;102829.75;;;22.31;60.15
64388;BME280;50709;52.648;4.764;2022-07-09T02:56:28;102824.47;;;22.29;60.20
64388;BME280;50709;52.648;4.764;2022-07-09T02:58:53;102823.63;;;22.27;60.16
64388;BME280;50709;52.648;4.764;2022-07-09T03:01:19;102822.94;;;22.14;60.19
64388;BME280;50709;52.648;4.764;2022-07-09T03:03:44;102818.97;;;21.82;60.42
64388;BME280;50709;52.648;4.764;2022-07-09T03:06:10;102824.81;;;22.08;60.36
64388;BME280;50709;52.648;4.764;2022-07-09T03:08:35;102823.19;;;21.97;60.42
64388;BME280;50709;52.648;4.764;2022-07-09T03:11:03;102813.66;;;21.79;60.51
64388;BME280;50709;52.648;4.764;2022-07-09T03:13:31;102812.50;;;22.00;60.49
64388;BME280;50709;52.648;4.764;2022-07-09T03:15:57;102800.13;;;21.98;60.38
64388;BME280;50709;52.648;4.764;2022-07-09T03:18:22;102817.94;;;21.91;60.28
64388;BME280;50709;52.648;4.764;2022-07-09T03:20:47;102808.34;;;21.79;60.86
64388;BME280;50709;52.648;4.764;2022-07-09T03:23:13;102791.72;;;21.66;61.02
64388;BME280;50709;52.648;4.764;2022-07-09T03:25:38;102810.84;;;21.92;60.70
64388;BME280;50709;52.648;4.764;2022-07-09T03:28:04;102808.22;;;21.89;60.71
64388;BME280;50709;52.648;4.764;2022-07-09T03:30:29;102794.16;;;21.80;60.75
64388;BME280;50709;52.648;4.764;2022-07-09T03:36:17;102795.97;;;21.80;60.66
64388;BME280;50709;52.648;4.764;2022-07-09T03:38:42;102795.97;;;21.80;60.79
64388;BME280;50709;52.648;4.764;2022-07-09T03:41:07;102800.44;;;21.76;60.84
64388;BME280;50709;52.648;4.764;2022-07-09T03:43:32;102786.31;;;21.71;61.03
64388;BME280;50709;52.648;4.764;2022-07-09T03:45:58;102794.25;;;21.73;60.68
64388;BME280;50709;52.648;4.764;2022-07-09T03:48:23;102737.81;;;21.50;60.71
64388;BME280;50709;52.648;4.764;2022-07-09T03:50:49;102785.66;;;21.52;60.78
64388;BME280;50709;52.648;4.764;2022-07-09T03:53:14;102787.19;;;21.70;60.87
64388;BME280;50709;52.648;4.764;2022-07-09T03:55:39;102762.47;;;21.65;61.01
64388;BME280;50709;52.648;4.764;2022-07-09T03:58:05;102793.22;;;21.84;60.19
64388;BME280;50709;52.648;4.764;2022-07-09T04:00:30;102792.31;;;21.86;60.40
64388;BME280;50709;52.648;4.764;2022-07-09T04:02:56;102784.22;;;21.92;60.38
64388;BME280;50709;52.648;4.764;2022-07-09T04:05:21;102793.09;;;21.94;60.19
64388;BME280;50709;52.648;4.764;2022-07-09T04:07:46;102786.88;;;21.95;59.91
64388;BME280;50709;52.648;4.764;2022-07-09T04:10:12;102785.19;;;21.88;60.21
64388;BME280;50709;52.648;4.764;2022-07-09T04:12:37;102783.63;;;21.73;60.65
64388;BME280;50709;52.648;4.764;2022-07-09T04:15:03;102777.41;;;21.74;60.72
64388;BME280;50709;52.648;4.764;2022-07-09T04:17:28;102767.56;;;21.80;60.42
64388;BME280;50709;52.648;4.764;2022-07-09T04:19:54;102767.63;;;21.77;60.61
64388;BME280;50709;52.648;4.764;2022-07-09T04:22:19;102782.41;;;21.95;60.17
64388;BME280;50709;52.648;4.764;2022-07-09T04:24:44;102764.03;;;21.81;60.46
64388;BME280;50709;52.648;4.764;2022-07-09T04:27:09;102775.56;;;21.79;60.78
64388;BME280;50709;52.648;4.764;2022-07-09T04:29:35;102786.47;;;21.60;60.70
64388;BME280;50709;52.648;4.764;2022-07-09T04:32:00;102780.31;;;21.55;60.64
64388;BME280;50709;52.648;4.764;2022-07-09T04:34:25;102784.84;;;21.45;61.74
64388;BME280;50709;52.648;4.764;2022-07-09T04:36:51;102777.56;;;21.63;60.87
64388;BME280;50709;52.648;4.764;2022-07-09T04:39:16;102769.31;;;21.83;60.68
64388;BME280;50709;52.648;4.764;2022-07-09T04:41:42;102774.50;;;21.92;60.20
64388;BME280;50709;52.648;4.764;2022-07-09T04:44:07;102777.94;;;21.99;60.27
64388;BME280;50709;52.648;4.764;2022-07-09T04:46:32;102775.97;;;22.10;59.85
64388;BME280;50709;52.648;4.764;2022-07-09T04:48:58;102771.81;;;21.94;60.00
64388;BME280;50709;52.648;4.764;2022-07-09T04:51:23;102770.22;;;21.80;60.22
64388;BME280;50709;52.648;4.764;2022-07-09T04:53:49;102769.38;;;21.78;61.13
64388;BME280;50709;52.648;4.764;2022-07-09T04:56:14;102790.34;;;21.98;60.44
64388;BME280;50709;52.648;4.764;2022-07-09T04:58:42;102781.03;;;22.29;59.34
64388;BME280;50709;52.648;4.764;2022-07-09T05:01:20;102775.78;;;22.23;59.63
64388;BME280;50709;52.648;4.764;2022-07-09T05:03:46;102779.88;;;22.45;59.03
64388;BME280;50709;52.648;4.764;2022-07-09T05:06:14;102786.19;;;22.40;61.23
64388;BME280;50709;52.648;4.764;2022-07-09T05:08:39;102788.53;;;22.02;60.28
64388;BME280;50709;52.648;4.764;2022-07-09T05:11:05;102790.91;;;22.21;59.84
64388;BME280;50709;52.648;4.764;2022-07-09T05:13:30;102794.56;;;22.13;59.98
64388;BME280;50709;52.648;4.764;2022-07-09T05:15:55;102800.03;;;22.04;60.60
64388;BME280;50709;52.648;4.764;2022-07-09T05:18:21;102787.84;;;22.47;58.89
64388;BME280;50709;52.648;4.764;2022-07-09T05:20:46;102772.94;;;22.33;59.06
64388;BME280;50709;52.648;4.764;2022-07-09T05:23:11;102790.59;;;22.42;59.73
64388;BME280;50709;52.648;4.764;2022-07-09T05:25:37;102780.94;;;22.33;59.64
64388;BME280;50709;52.648;4.764;2022-07-09T05:28:02;102789.06;;;22.26;59.61
64388;BME280;50709;52.648;4.764;2022-07-09T05:30:28;102764.50;;;22.08;59.71
64388;BME280;50709;52.648;4.764;2022-07-09T05:32:53;102774.88;;;22.24;59.96
64388;BME280;50709;52.648;4.764;2022-07-09T05:35:18;102782.19;;;22.12;60.00
64388;BME280;50709;52.648;4.764;2022-07-09T05:37:44;102777.94;;;22.57;59.18
64388;BME280;50709;52.648;4.764;2022-07-09T05:40:10;102769.31;;;22.42;59.38
64388;BME280;50709;52.648;4.764;2022-07-09T05:42:36;102716.28;;;22.27;59.17
64388;BME280;50709;52.648;4.764;2022-07-09T05:45:02;102776.75;;;22.73;58.46
64388;BME280;50709;52.648;4.764;2022-07-09T05:47:27;102758.19;;;22.67;58.22
64388;BME280;50709;52.648;4.764;2022-07-09T05:49:52;102780.06;;;22.84;58.23
64388;BME280;50709;52.648;4.764;2022-07-09T05:52:18;102771.22;;;23.29;55.80
64388;BME280;50709;52.648;4.764;2022-07-09T05:54:43;102751.31;;;23.47;55.59
64388;BME280;50709;52.648;4.764;2022-07-09T05:57:09;102778.66;;;23.57;54.96
64388;BME280;50709;52.648;4.764;2022-07-09T05:59:35;102804.13;;;23.71;55.14
64388;BME280;50709;52.648;4.764;2022-07-09T06:02:00;102796.88;;;23.77;54.35
64388;BME280;50709;52.648;4.764;2022-07-09T06:04:28;102796.63;;;23.90;54.54
64388;BME280;50709;52.648;4.764;2022-07-09T06:06:53;102787.50;;;23.58;54.93
64388;BME280;50709;52.648;4.764;2022-07-09T06:09:19;102789.94;;;23.70;54.81
64388;BME280;50709;52.648;4.764;2022-07-09T06:11:44;102745.38;;;23.33;55.02
64388;BME280;50709;52.648;4.764;2022-07-09T06:14:09;102788.09;;;23.72;54.69
64388;BME280;50709;52.648;4.764;2022-07-09T06:16:36;102799.13;;;23.57;55.37
64388;BME280;50709;52.648;4.764;2022-07-09T06:19:01;102799.94;;;23.59;55.19
64388;BME280;50709;52.648;4.764;2022-07-09T06:21:26;102788.41;;;23.58;55.19
64388;BME280;50709;52.648;4.764;2022-07-09T06:23:51;102792.25;;;23.45;55.61
64388;BME280;50709;52.648;4.764;2022-07-09T06:26:17;102802.69;;;23.56;54.66
64388;BME280;50709;52.648;4.764;2022-07-09T06:28:42;102801.63;;;23.63;54.92
64388;BME280;50709;52.648;4.764;2022-07-09T06:31:07;102796.63;;;23.47;54.86
64388;BME280;50709;52.648;4.764;2022-07-09T06:33:33;102793.59;;;23.66;54.68
64388;BME280;50709;52.648;4.764;2022-07-09T06:35:58;102813.50;;;23.48;54.86
64388;BME280;50709;52.648;4.764;2022-07-09T06:38:27;102807.94;;;23.59;54.59
64388;BME280;50709;52.648;4.764;2022-07-09T06:40:53;102779.84;;;23.42;54.48
64388;BME280;50709;52.648;4.764;2022-07-09T06:43:19;102800.38;;;23.39;55.21
64388;BME280;50709;52.648;4.764;2022-07-09T06:45:44;102807.97;;;23.57;54.72
64388;BME280;50709;52.648;4.764;2022-07-09T06:48:09;102810.75;;;23.51;55.46
64388;BME280;50709;52.648;4.764;2022-07-09T06:50:35;102756.56;;;23.07;54.89
64388;BME280;50709;52.648;4.764;2022-07-09T06:53:00;102794.34;;;23.29;54.77
64388;BME280;50709;52.648;4.764;2022-07-09T06:55:25;102793.91;;;23.50;54.39
64388;BME280;50709;52.648;4.764;2022-07-09T06:57:51;102792.88;;;23.12;55.22
64388;BME280;50709;52.648;4.764;2022-07-09T07:00:16;102814.06;;;23.64;54.25
64388;BME280;50709;52.648;4.764;2022-07-09T07:02:42;102813.94;;;23.70;53.94
64388;BME280;50709;52.648;4.764;2022-07-09T07:05:07;102787.16;;;23.34;54.15
64388;BME280;50709;52.648;4.764;2022-07-09T07:07:33;102817.16;;;23.44;54.80
64388;BME280;50709;52.648;4.764;2022-07-09T07:09:58;102804.91;;;23.35;55.08
64388;BME280;50709;52.648;4.764;2022-07-09T07:12:24;102778.53;;;23.20;54.72
64388;BME280;50709;52.648;4.764;2022-07-09T07:14:49;102800.31;;;23.40;54.63
64388;BME280;50709;52.648;4.764;2022-07-09T07:17:15;102800.53;;;23.31;54.88
64388;BME280;50709;52.648;4.764;2022-07-09T07:19:41;102803.59;;;23.55;54.69
64388;BME280;50709;52.648;4.764;2022-07-09T07:22:06;102805.25;;;23.60;54.70
64388;BME280;50709;52.648;4.764;2022-07-09T07:24:32;102809.41;;;23.74;53.68
64388;BME280;50709;52.648;4.764;2022-07-09T07:26:57;102779.84;;;23.42;54.13
64388;BME280;50709;52.648;4.764;2022-07-09T07:29:24;102807.72;;;23.69;53.97
64388;BME280;50709;52.648;4.764;2022-07-09T07:31:49;102811.22;;;23.72;53.87
64388;BME280;50709;52.648;4.764;2022-07-09T07:34:15;102803.75;;;23.47;54.03
64388;BME280;50709;52.648;4.764;2022-07-09T07:36:41;102755.22;;;23.29;54.31
64388;BME280;50709;52.648;4.764;2022-07-09T07:39:06;102796.19;;;22.78;56.01
64388;BME280;50709;52.648;4.764;2022-07-09T07:41:32;102811.75;;;22.51;57.39
64388;BME280;50709;52.648;4.764;2022-07-09T07:43:57;102803.91;;;22.42;57.97
64388;BME280;50709;52.648;4.764;2022-07-09T07:46:22;102763.13;;;22.39;58.86
64388;BME280;50709;52.648;4.764;2022-07-09T07:48:48;102821.94;;;22.78;58.88
64388;BME280;50709;52.648;4.764;2022-07-09T07:51:13;102793.88;;;22.58;59.11
64388;BME280;50709;52.648;4.764;2022-07-09T07:53:38;102802.66;;;22.62;59.42
64388;BME280;50709;52.648;4.764;2022-07-09T07:56:05;102801.88;;;22.58;62.32
64388;BME280;50709;52.648;4.764;2022-07-09T07:58:30;102764.06;;;22.36;58.07
64388;BME280;50709;52.648;4.764;2022-07-09T08:00:56;102813.09;;;22.76;57.78
64388;BME280;50709;52.648;4.764;2022-07-09T08:03:21;102809.66;;;22.69;57.56
64388;BME280;50709;52.648;4.764;2022-07-09T08:05:47;102817.50;;;22.77;57.79
64388;BME280;50709;52.648;4.764;2022-07-09T08:08:12;102824.50;;;22.84;57.50
64388;BME280;50709;52.648;4.764;2022-07-09T08:10:38;102809.44;;;22.81;57.20
64388;BME280;50709;52.648;4.764;2022-07-09T08:13:03;102807.81;;;22.73;57.40
64388;BME280;50709;52.648;4.764;2022-07-09T08:15:29;102813.56;;;22.98;57.44
64388;BME280;50709;52.648;4.764;2022-07-09T08:17:54;102811.78;;;23.00;56.27
64388;BME280;50709;52.648;4.764;2022-07-09T08:20:20;102793.66;;;22.71;56.42
64388;BME280;50709;52.648;4.764;2022-07-09T08:22:45;102798.78;;;22.81;57.25
64388;BME280;50709;52.648;4.764;2022-07-09T08:25:11;102816.47;;;22.85;56.64
64388;BME280;50709;52.648;4.764;2022-07-09T08:27:36;102823.50;;;22.90;56.61
64388;BME280;50709;52.648;4.764;2022-07-09T08:30:02;102817.88;;;23.05;56.49
64388;BME280;50709;52.648;4.764;2022-07-09T08:32:27;102819.03;;;22.92;56.85
64388;BME280;50709;52.648;4.764;2022-07-09T08:34:54;102806.16;;;23.15;56.67
64388;BME280;50709;52.648;4.764;2022-07-09T08:37:19;102801.88;;;23.05;56.46
64388;BME280;50709;52.648;4.764;2022-07-09T08:39:44;102807.69;;;23.29;55.93
64388;BME280;50709;52.648;4.764;2022-07-09T08:42:10;102813.50;;;23.48;55.04
64388;BME280;50709;52.648;4.764;2022-07-09T08:44:39;102788.72;;;23.83;53.92
64388;BME280;50709;52.648;4.764;2022-07-09T08:47:10;102757.59;;;23.84;52.96
64388;BME280;50709;52.648;4.764;2022-07-09T08:49:36;102789.94;;;23.68;52.72
64388;BME280;50709;52.648;4.764;2022-07-09T08:52:02;102795.94;;;23.80;53.34
64388;BME280;50709;52.648;4.764;2022-07-09T08:54:29;102825.53;;;24.10;52.77
64388;BME280;50709;52.648;4.764;2022-07-09T08:56:56;102825.41;;;24.14;52.86
64388;BME280;50709;52.648;4.764;2022-07-09T08:59:21;102817.63;;;24.05;52.00
64388;BME280;50709;52.648;4.764;2022-07-09T09:01:46;102829.75;;;24.18;52.79
64388;BME280;50709;52.648;4.764;2022-07-09T09:04:12;102807.09;;;23.99;53.37
64388;BME280;50709;52.648;4.764;2022-07-09T09:06:38;102809.53;;;24.08;52.62
64388;BME280;50709;52.648;4.764;2022-07-09T09:09:07;102820.50;;;23.96;53.76
64388;BME280;50709;52.648;4.764;2022-07-09T09:11:33;102799.69;;;24.10;51.45
64388;BME280;50709;52.648;4.764;2022-07-09T09:14:00;102823.59;;;24.52;51.83
64388;BME280;50709;52.648;4.764;2022-07-09T09:16:26;102823.81;;;24.43;52.25
64388;BME280;50709;52.648;4.764;2022-07-09T09:18:52;102829.38;;;24.34;51.83
64388;BME280;50709;52.648;4.764;2022-07-09T09:21:25;102830.16;;;24.39;51.85
64388;BME280;50709;52.648;4.764;2022-07-09T09:23:52;102791.63;;;24.13;52.10
64388;BME280;50709;52.648;4.764;2022-07-09T09:26:19;102827.81;;;24.27;51.89
64388;BME280;50709;52.648;4.764;2022-07-09T09:28:52;102791.50;;;24.54;51.44
64388;BME280;50709;52.648;4.764;2022-07-09T09:31:29;102828.41;;;24.74;50.83
64388;BME280;50709;52.648;4.764;2022-07-09T09:34:17;102823.50;;;24.56;50.20
64388;BME280;50709;52.648;4.764;2022-07-09T09:36:43;102840.34;;;24.59;51.46
64388;BME280;50709;52.648;4.764;2022-07-09T09:39:18;102836.25;;;24.80;51.44
64388;BME280;50709;52.648;4.764;2022-07-09T09:41:49;102852.44;;;24.38;49.20
64388;BME280;50709;52.648;4.764;2022-07-09T09:44:22;102828.22;;;24.08;51.43
64388;BME280;50709;52.648;4.764;2022-07-09T09:46:49;102829.16;;;24.43;49.80
64388;BME280;50709;52.648;4.764;2022-07-09T09:49:15;102837.63;;;24.61;50.46
64388;BME280;50709;52.648;4.764;2022-07-09T09:54:17;102840.13;;;24.68;50.36
64388;BME280;50709;52.648;4.764;2022-07-09T09:56:43;102809.53;;;24.46;49.03
64388;BME280;50709;52.648;4.764;2022-07-09T09:59:12;102836.44;;;24.74;49.35
64388;BME280;50709;52.648;4.764;2022-07-09T10:01:39;102867.38;;;24.83;50.06
64388;BME280;50709;52.648;4.764;2022-07-09T10:04:06;102848.13;;;24.70;48.43
64388;BME280;50709;52.648;4.764;2022-07-09T10:06:33;102852.53;;;25.06;49.28
64388;BME280;50709;52.648;4.764;2022-07-09T10:09:01;102856.41;;;24.94;50.68
64388;BME280;50709;52.648;4.764;2022-07-09T10:11:40;102854.03;;;25.14;49.41
64388;BME280;50709;52.648;4.764;2022-07-09T10:14:06;102831.41;;;25.28;47.43
64388;BME280;50709;52.648;4.764;2022-07-09T10:16:36;102855.41;;;25.31;48.46
64388;BME280;50709;52.648;4.764;2022-07-09T10:19:02;102867.44;;;25.47;48.38
64388;BME280;50709;52.648;4.764;2022-07-09T10:21:52;102853.47;;;25.38;48.48
64388;BME280;50709;52.648;4.764;2022-07-09T10:24:27;102867.59;;;25.08;47.91
64388;BME280;50709;52.648;4.764;2022-07-09T10:29:30;102843.84;;;25.29;49.33
64388;BME280;50709;52.648;4.764;2022-07-09T10:31:56;102862.06;;;25.16;46.96
64388;BME280;50709;52.648;4.764;2022-07-09T10:37:01;102816.97;;;25.02;48.25
64388;BME280;50709;52.648;4.764;2022-07-09T10:39:27;102863.19;;;25.40;46.74
64388;BME280;50709;52.648;4.764;2022-07-09T10:42:00;102860.22;;;25.49;46.18
64388;BME280;50709;52.648;4.764;2022-07-09T10:44:27;102845.19;;;25.45;48.43
64388;BME280;50709;52.648;4.764;2022-07-09T10:46:57;102819.69;;;25.32;46.95
64388;BME280;50709;52.648;4.764;2022-07-09T10:49:24;102848.28;;;25.30;48.45
64388;BME280;50709;52.648;4.764;2022-07-09T10:51:49;102845.56;;;25.63;47.58
64388;BME280;50709;52.648;4.764;2022-07-09T10:54:19;102849.50;;;25.18;49.05
64388;BME280;50709;52.648;4.764;2022-07-09T10:56:46;102850.66;;;25.09;49.66
64388;BME280;50709;52.648;4.764;2022-07-09T10:59:16;102816.72;;;25.11;46.17
64388;BME280;50709;52.648;4.764;2022-07-09T11:01:42;102859.09;;;25.58;47.08
64388;BME280;50709;52.648;4.764;2022-07-09T11:04:07;102846.75;;;25.54;46.45
64388;BME280;50709;52.648;4.764;2022-07-09T11:06:44;102811.75;;;25.62;46.83
64388;BME280;50709;52.648;4.764;2022-07-09T11:09:16;102854.66;;;25.87;44.67
64388;BME280;50709;52.648;4.764;2022-07-09T11:11:42;102858.75;;;25.99;46.24
64388;BME280;50709;52.648;4.764;2022-07-09T11:14:09;102865.69;;;25.76;47.40
64388;BME280;50709;52.648;4.764;2022-07-09T11:16:35;102853.81;;;25.57;47.75
64388;BME280;50709;52.648;4.764;2022-07-09T11:19:14;102854.47;;;25.93;47.18
64388;BME280;50709;52.648;4.764;2022-07-09T11:21:40;102855.13;;;25.72;47.74
64388;BME280;50709;52.648;4.764;2022-07-09T11:24:13;102861.09;;;25.81;47.92
64388;BME280;50709;52.648;4.764;2022-07-09T11:26:39;102860.84;;;25.89;47.40
64388;BME280;50709;52.648;4.764;2022-07-09T11:29:09;102856.84;;;26.04;46.47
64388;BME280;50709;52.648;4.764;2022-07-09T11:31:36;102849.50;;;26.11;46.24
64388;BME280;50709;52.648;4.764;2022-07-09T11:34:02;102856.66;;;25.80;47.26
64388;BME280;50709;52.648;4.764;2022-07-09T11:36:38;102865.53;;;26.12;46.22
64388;BME280;50709;52.648;4.764;2022-07-09T11:39:04;102870.72;;;26.17;46.67
64388;BME280;50709;52.648;4.764;2022-07-09T11:41:40;102851.94;;;25.27;49.12
64388;BME280;50709;52.648;4.764;2022-07-09T11:44:05;102886.16;;;24.42;48.97
64388;BME280;50709;52.648;4.764;2022-07-09T11:46:30;102873.25;;;23.81;50.59
64388;BME280;50709;52.648;4.764;2022-07-09T11:48:56;102874.88;;;23.92;50.51
64388;BME280;50709;52.648;4.764;2022-07-09T11:51:30;102881.50;;;23.71;50.03
64388;BME280;50709;52.648;4.764;2022-07-09T11:53:56;102880.13;;;23.95;49.55
64388;BME280;50709;52.648;4.764;2022-07-09T11:56:21;102874.09;;;23.85;49.06
64388;BME280;50709;52.648;4.764;2022-07-09T11:58:51;102874.44;;;24.10;49.10
64388;BME280;50709;52.648;4.764;2022-07-09T12:01:16;102876.03;;;24.19;47.79
64388;BME280;50709;52.648;4.764;2022-07-09T12:03:49;102872.81;;;25.13;46.32
64388;BME280;50709;52.648;4.764;2022-07-09T12:06:14;102880.13;;;25.06;48.27
64388;BME280;50709;52.648;4.764;2022-07-09T12:08:39;102880.53;;;25.24;45.80
64388;BME280;50709;52.648;4.764;2022-07-09T12:11:05;102867.53;;;25.44;45.48
64388;BME280;50709;52.648;4.764;2022-07-09T12:13:31;102891.13;;;25.28;44.15
64388;BME280;50709;52.648;4.764;2022-07-09T12:15:56;102873.94;;;25.70;43.72
64388;BME280;50709;52.648;4.764;2022-07-09T12:18:21;102877.25;;;25.78;43.79
64388;BME280;50709;52.648;4.764;2022-07-09T12:20:47;102858.13;;;25.91;45.33
64388;BME280;50709;52.648;4.764;2022-07-09T12:23:12;102878.34;;;26.02;42.73
64388;BME280;50709;52.648;4.764;2022-07-09T12:25:39;102875.50;;;26.07;42.46
64388;BME280;50709;52.648;4.764;2022-07-09T12:28:04;102887.19;;;25.43;42.82
64388;BME280;50709;52.648;4.764;2022-07-09T12:30:30;102892.09;;;25.89;42.25
64388;BME280;50709;52.648;4.764;2022-07-09T12:32:55;102857.94;;;25.67;45.35
64388;BME280;50709;52.648;4.764;2022-07-09T12:35:24;102893.94;;;25.86;44.69
64388;BME280;50709;52.648;4.764;2022-07-09T12:37:49;102880.84;;;25.77;43.15
64388;BME280;50709;52.648;4.764;2022-07-09T12:40:15;102888.06;;;25.75;43.16
64388;BME280;50709;52.648;4.764;2022-07-09T12:42:40;102884.88;;;24.95;45.06
64388;BME280;50709;52.648;4.764;2022-07-09T12:45:06;102885.41;;;25.42;42.30
64388;BME280;50709;52.648;4.764;2022-07-09T12:47:32;102848.75;;;25.46;46.29
64388;BME280;50709;52.648;4.764;2022-07-09T12:49:57;102886.97;;;25.49;45.38
64388;BME280;50709;52.648;4.764;2022-07-09T12:52:23;102885.44;;;25.72;46.06
64388;BME280;50709;52.648;4.764;2022-07-09T12:54:48;102864.75;;;25.47;45.21
64388;BME280;50709;52.648;4.764;2022-07-09T12:57:14;102898.44;;;25.55;45.29